createdAt,value
2019-02-07T00:00:22.561Z,5.00
2019-02-07T00:02:49.480Z,4.90
2019-02-07T00:05:16.221Z,4.90
2019-02-07T00:07:42.926Z,4.80
2019-02-07T00:10:13.284Z,5.00
2019-02-07T00:12:39.978Z,5.00
2019-02-07T00:15:09.026Z,4.90
2019-02-07T00:17:35.616Z,4.90
2019-02-07T00:20:05.843Z,4.90
2019-02-07T00:22:32.556Z,5.00
2019-02-07T00:24:59.177Z,5.10
2019-02-07T00:27:25.844Z,5.00
2019-02-07T00:29:52.633Z,5.00
2019-02-07T00:32:19.355Z,5.10
2019-02-07T00:34:46.365Z,5.20
2019-02-07T00:37:13.013Z,5.10
2019-02-07T00:39:39.791Z,5.00
2019-02-07T00:42:06.452Z,4.90
2019-02-07T00:44:33.131Z,5.00
2019-02-07T00:46:59.895Z,4.90
2019-02-07T00:49:26.785Z,5.00
2019-02-07T00:51:53.790Z,5.00
2019-02-07T00:54:20.410Z,5.00
2019-02-07T00:56:46.859Z,5.20
2019-02-07T00:59:13.506Z,5.20
2019-02-07T01:01:40.333Z,5.10
2019-02-07T01:04:07.182Z,5.30
2019-02-07T01:06:33.921Z,5.20
2019-02-07T01:09:00.377Z,5.10
2019-02-07T01:11:27.301Z,5.10
2019-02-07T01:13:53.878Z,5.10
2019-02-07T01:16:20.491Z,5.30
2019-02-07T01:18:46.957Z,5.30
2019-02-07T01:21:13.861Z,5.20
2019-02-07T01:23:41.092Z,5.30
2019-02-07T01:26:07.745Z,5.20
2019-02-07T01:28:34.753Z,5.20
2019-02-07T01:31:01.459Z,5.20
2019-02-07T01:33:28.158Z,5.20
2019-02-07T01:35:54.761Z,5.10
2019-02-07T01:38:22.225Z,5.10
2019-02-07T01:40:49.000Z,5.20
2019-02-07T01:43:15.682Z,5.10
2019-02-07T01:45:42.320Z,5.10
2019-02-07T01:48:09.116Z,5.20
2019-02-07T01:50:35.798Z,5.10
2019-02-07T01:53:02.649Z,5.10
2019-02-07T01:55:29.435Z,5.10
2019-02-07T01:57:55.986Z,5.00
2019-02-07T02:00:23.145Z,4.90
2019-02-07T02:02:50.043Z,5.00
2019-02-07T02:05:18.206Z,5.00
2019-02-07T02:07:45.695Z,5.00
2019-02-07T02:10:18.580Z,4.90
2019-02-07T02:12:45.352Z,5.10
2019-02-07T02:15:23.737Z,5.10
2019-02-07T02:17:41.906Z,5.10
2019-02-07T02:20:14.454Z,5.10
2019-02-07T02:22:41.246Z,5.00
2019-02-07T02:25:09.678Z,5.00
2019-02-07T02:27:36.324Z,4.90
2019-02-07T02:30:06.886Z,5.00
2019-02-07T02:32:33.610Z,5.00
2019-02-07T02:35:00.318Z,5.00
2019-02-07T02:37:26.928Z,5.00
2019-02-07T02:39:53.958Z,5.10
2019-02-07T02:42:20.557Z,5.10
2019-02-07T02:44:47.029Z,5.10
2019-02-07T02:47:13.730Z,5.00
2019-02-07T02:49:40.304Z,4.90
2019-02-07T02:52:07.105Z,4.90
2019-02-07T02:54:38.615Z,5.00
2019-02-07T02:57:05.205Z,5.00
2019-02-07T02:59:32.189Z,5.10
2019-02-07T03:02:03.361Z,5.10
2019-02-07T03:04:31.856Z,5.10
2019-02-07T03:07:00.355Z,5.10
2019-02-07T03:09:34.771Z,5.10
2019-02-07T03:12:03.674Z,5.00
2019-02-07T03:14:32.197Z,5.10
2019-02-07T03:17:00.670Z,4.90
2019-02-07T03:19:32.214Z,5.00
2019-02-07T03:22:16.140Z,5.10
2019-02-07T03:24:50.867Z,5.10
2019-02-07T03:27:22.479Z,5.10
2019-02-07T03:29:53.838Z,5.10
2019-02-07T03:32:30.898Z,5.10
2019-02-07T03:35:11.600Z,5.00
2019-02-07T03:37:43.076Z,5.10
2019-02-07T03:40:19.191Z,5.10
2019-02-07T03:42:50.444Z,5.20
2019-02-07T03:45:34.301Z,5.00
2019-02-07T03:48:02.773Z,5.00
2019-02-07T03:50:34.019Z,5.10
2019-02-07T03:53:20.790Z,4.90
2019-02-07T03:55:49.294Z,5.10
2019-02-07T03:58:23.714Z,5.00
2019-02-07T04:01:07.668Z,5.00
2019-02-07T04:03:39.867Z,5.10
2019-02-07T04:06:17.408Z,5.20
2019-02-07T04:08:46.011Z,5.20
2019-02-07T04:11:31.606Z,5.10
2019-02-07T04:14:06.128Z,5.20
2019-02-07T04:16:34.690Z,5.20
2019-02-07T04:19:20.189Z,5.00
2019-02-07T04:22:06.898Z,5.00
2019-02-07T04:24:38.260Z,5.00
2019-02-07T04:27:12.901Z,4.90
2019-02-07T04:29:44.225Z,5.00
2019-02-07T04:32:12.904Z,5.00
2019-02-07T04:34:58.211Z,5.00
2019-02-07T04:37:27.505Z,5.00
2019-02-07T04:40:00.882Z,5.10
2019-02-07T04:42:47.697Z,5.10
2019-02-07T04:45:25.047Z,5.00
2019-02-07T04:48:02.449Z,5.10
2019-02-07T04:50:30.947Z,5.10
2019-02-07T04:53:02.327Z,5.10
2019-02-07T04:55:36.903Z,5.00
2019-02-07T04:58:05.351Z,5.10
2019-02-07T05:00:39.658Z,5.20
2019-02-07T05:03:14.145Z,5.10
2019-02-07T05:05:42.856Z,5.00
2019-02-07T05:08:14.315Z,5.00
2019-02-07T05:10:45.696Z,5.00
2019-02-07T05:13:30.746Z,5.00
2019-02-07T05:16:14.951Z,5.10
2019-02-07T05:18:46.684Z,5.00
2019-02-07T05:21:28.873Z,5.00
2019-02-07T05:23:58.496Z,5.00
2019-02-07T05:26:35.888Z,5.10
2019-02-07T05:29:11.820Z,4.90
2019-02-07T05:31:40.525Z,5.00
2019-02-07T05:34:09.128Z,4.90
2019-02-07T05:36:42.373Z,5.00
2019-02-07T05:39:15.707Z,4.90
2019-02-07T05:42:02.678Z,4.90
2019-02-07T05:44:31.293Z,4.80
2019-02-07T05:47:18.194Z,5.00
2019-02-07T05:49:46.714Z,4.90
2019-02-07T05:52:15.178Z,4.90
2019-02-07T05:54:59.189Z,4.90
2019-02-07T05:57:37.014Z,5.00
2019-02-07T06:00:18.449Z,4.90
2019-02-07T06:02:53.339Z,4.90
2019-02-07T06:05:22.152Z,5.00
2019-02-07T06:07:56.338Z,4.80
2019-02-07T06:10:30.795Z,4.90
2019-02-07T06:13:17.086Z,5.00
2019-02-07T06:16:02.283Z,4.90
2019-02-07T06:18:33.695Z,4.90
2019-02-07T06:21:05.269Z,4.80
2019-02-07T06:23:50.853Z,4.80
2019-02-07T06:26:31.408Z,4.70
2019-02-07T06:29:09.309Z,4.70
2019-02-07T06:31:55.167Z,4.70
2019-02-07T06:34:41.985Z,4.70
2019-02-07T06:37:13.565Z,4.60
2019-02-07T06:39:57.199Z,4.60
2019-02-07T06:42:25.724Z,4.70
2019-02-07T06:45:09.600Z,4.50
2019-02-07T06:47:54.777Z,4.60
2019-02-07T06:50:29.105Z,4.60
2019-02-07T06:52:57.720Z,4.60
2019-02-07T06:55:26.421Z,4.70
2019-02-07T06:58:02.526Z,4.70
2019-02-07T07:00:34.284Z,4.70
2019-02-07T07:03:10.843Z,4.60
2019-02-07T07:05:48.332Z,4.80
2019-02-07T07:08:29.157Z,4.80
2019-02-07T07:11:06.624Z,4.80
2019-02-07T07:13:37.824Z,4.80
2019-02-07T07:16:21.793Z,4.60
2019-02-07T07:19:02.815Z,4.60
2019-02-07T07:21:43.333Z,4.70
2019-02-07T07:24:15.592Z,4.70
2019-02-07T07:26:44.164Z,4.70
2019-02-07T07:29:19.797Z,4.80
2019-02-07T07:31:50.885Z,4.70
2019-02-07T07:34:22.673Z,4.70
2019-02-07T07:36:51.696Z,4.80
2019-02-07T07:39:29.331Z,4.90
2019-02-07T07:42:14.600Z,4.80
2019-02-07T07:44:43.098Z,4.90
2019-02-07T07:47:35.795Z,4.80
2019-02-07T07:50:08.022Z,4.90
2019-02-07T07:52:42.617Z,4.80
2019-02-07T07:55:12.012Z,4.80
2019-02-07T07:57:43.377Z,4.70
2019-02-07T08:00:29.094Z,4.80
2019-02-07T08:03:03.455Z,4.80
2019-02-07T08:05:34.716Z,4.70
2019-02-07T08:08:06.313Z,4.80
2019-02-07T08:10:37.578Z,4.90
2019-02-07T08:13:18.797Z,4.80
2019-02-07T08:15:47.469Z,4.90
2019-02-07T08:18:22.418Z,4.80
2019-02-07T08:20:54.245Z,4.90
2019-02-07T08:23:33.859Z,5.00
2019-02-07T08:26:18.989Z,5.00
2019-02-07T08:28:57.855Z,4.90
2019-02-07T08:31:28.846Z,4.80
2019-02-07T08:34:12.372Z,4.80
2019-02-07T08:36:46.792Z,4.70
2019-02-07T08:39:32.149Z,4.70
2019-02-07T08:42:06.487Z,4.80
2019-02-07T08:44:35.193Z,4.70
2019-02-07T08:47:22.216Z,4.70
2019-02-07T08:49:59.953Z,4.80
2019-02-07T08:52:46.755Z,4.80
2019-02-07T08:55:35.073Z,4.90
2019-02-07T08:58:18.846Z,5.00
2019-02-07T09:01:02.500Z,5.00
2019-02-07T09:03:36.831Z,5.00
2019-02-07T09:06:22.819Z,5.00
2019-02-07T09:09:09.694Z,4.80
2019-02-07T09:11:42.301Z,4.80
2019-02-07T09:14:13.491Z,4.80
2019-02-07T09:16:41.984Z,4.80
2019-02-07T09:19:12.190Z,5.00
2019-02-07T09:21:43.124Z,4.90
2019-02-07T09:24:15.133Z,4.90
2019-02-07T09:26:43.695Z,4.80
2019-02-07T09:29:26.232Z,5.00
2019-02-07T09:32:01.287Z,5.00
2019-02-07T09:34:35.482Z,5.00
2019-02-07T09:37:09.992Z,4.90
2019-02-07T09:39:47.756Z,5.00
2019-02-07T09:42:31.646Z,5.00
2019-02-07T09:45:01.767Z,5.00
2019-02-07T09:47:47.470Z,5.10
2019-02-07T09:50:16.463Z,5.00
2019-02-07T09:52:49.700Z,4.90
2019-02-07T09:55:34.896Z,4.80
2019-02-07T09:58:12.421Z,4.90
2019-02-07T10:00:51.622Z,4.80
2019-02-07T10:03:20.285Z,4.80
2019-02-07T10:05:51.537Z,4.70
2019-02-07T10:08:38.125Z,4.70
2019-02-07T10:11:12.776Z,4.70
2019-02-07T10:13:59.336Z,4.80
2019-02-07T10:16:27.941Z,4.80
2019-02-07T10:19:02.688Z,4.70
2019-02-07T10:21:47.533Z,4.80
2019-02-07T10:24:22.016Z,4.70
2019-02-07T10:26:54.414Z,4.90
2019-02-07T10:29:23.038Z,4.90
2019-02-07T10:31:54.357Z,5.00
2019-02-07T10:34:40.908Z,4.90
2019-02-07T10:37:12.228Z,4.90
2019-02-07T10:39:47.157Z,5.00
2019-02-07T10:42:27.790Z,5.00
2019-02-07T10:45:02.345Z,5.10
2019-02-07T10:47:39.969Z,5.10
2019-02-07T10:50:11.333Z,5.10
2019-02-07T10:52:46.032Z,5.10
2019-02-07T10:55:31.716Z,5.20
2019-02-07T10:58:16.119Z,5.10
2019-02-07T11:01:00.005Z,5.10
2019-02-07T11:03:37.881Z,4.90
2019-02-07T11:06:15.989Z,5.00
2019-02-07T11:09:01.594Z,4.80
2019-02-07T11:11:30.288Z,4.90
2019-02-07T11:13:58.855Z,4.90
2019-02-07T11:16:30.117Z,4.90
2019-02-07T11:18:59.174Z,5.00
2019-02-07T11:21:44.675Z,4.80
2019-02-07T11:24:30.564Z,4.80
2019-02-07T11:27:02.023Z,4.70
2019-02-07T11:29:47.358Z,4.60
2019-02-07T11:32:27.558Z,4.60
2019-02-07T11:35:01.933Z,4.70
2019-02-07T11:37:46.840Z,4.70
2019-02-07T11:40:32.319Z,4.80
2019-02-07T11:43:06.834Z,4.70
2019-02-07T11:45:35.213Z,4.60
2019-02-07T11:48:18.967Z,4.70
2019-02-07T11:51:00.727Z,4.70
2019-02-07T11:53:43.356Z,4.70
2019-02-07T11:56:11.848Z,4.80
2019-02-07T11:58:57.138Z,4.80
2019-02-07T12:01:31.051Z,4.70
2019-02-07T12:04:02.985Z,4.80
2019-02-07T12:06:31.470Z,4.90
2019-02-07T12:09:05.487Z,4.80
2019-02-07T12:11:43.031Z,4.80
2019-02-07T12:14:17.377Z,4.80
2019-02-07T12:16:45.887Z,4.80
2019-02-07T12:19:23.540Z,4.80
2019-02-07T12:21:59.970Z,4.80
2019-02-07T12:24:45.000Z,4.90
2019-02-07T12:27:23.429Z,5.10
2019-02-07T12:29:58.315Z,5.00
2019-02-07T12:32:27.415Z,5.20
2019-02-07T12:34:56.699Z,5.10
2019-02-07T12:37:37.457Z,5.10
2019-02-07T12:40:10.142Z,5.00
2019-02-07T12:42:47.971Z,5.20
2019-02-07T12:45:19.326Z,5.20
2019-02-07T12:48:04.234Z,5.40
2019-02-07T12:50:45.031Z,5.40
2019-02-07T12:53:20.769Z,5.40
2019-02-07T12:55:52.222Z,5.30
2019-02-07T12:58:23.172Z,5.50
2019-02-07T13:01:08.242Z,5.50
2019-02-07T13:03:42.882Z,5.70
2019-02-07T13:06:17.609Z,5.70
2019-02-07T13:08:46.296Z,5.70
2019-02-07T13:11:20.625Z,5.70
2019-02-07T13:14:06.291Z,5.80
2019-02-07T13:16:37.572Z,6.00
2019-02-07T13:19:23.156Z,6.20
2019-02-07T13:21:53.415Z,6.20
2019-02-07T13:24:25.103Z,6.20
2019-02-07T13:26:56.476Z,6.10
2019-02-07T13:29:25.160Z,6.20
2019-02-07T13:32:08.859Z,6.20
2019-02-07T13:34:43.794Z,6.30
2019-02-07T13:37:30.498Z,6.30
2019-02-07T13:40:03.653Z,6.40
2019-02-07T13:42:41.420Z,6.40
2019-02-07T13:45:25.862Z,6.60
2019-02-07T13:48:06.581Z,6.60
2019-02-07T13:50:37.652Z,6.60
2019-02-07T13:53:24.526Z,6.60
2019-02-07T13:56:10.037Z,6.70
2019-02-07T13:58:41.451Z,6.70
2019-02-07T14:01:17.630Z,6.70
2019-02-07T14:03:49.517Z,6.90
2019-02-07T14:06:30.187Z,7.00
2019-02-07T14:09:11.566Z,7.10
2019-02-07T14:11:42.867Z,7.10
2019-02-07T14:14:26.859Z,7.00
2019-02-07T14:16:55.366Z,7.10
2019-02-07T14:19:27.199Z,7.20
2019-02-07T14:21:55.730Z,7.30
2019-02-07T14:24:39.717Z,7.60
2019-02-07T14:27:14.494Z,7.60
2019-02-07T14:29:58.058Z,7.50
2019-02-07T14:32:43.460Z,7.40
2019-02-07T14:35:28.696Z,7.30
2019-02-07T14:38:03.365Z,7.20
2019-02-07T14:40:43.868Z,7.20
2019-02-07T14:43:24.472Z,7.10
2019-02-07T14:45:53.876Z,7.00
2019-02-07T14:48:22.415Z,7.10
2019-02-07T14:50:49.379Z,7.30
2019-02-07T14:53:15.973Z,7.20
2019-02-07T14:55:42.605Z,7.20
2019-02-07T14:58:09.220Z,7.20
2019-02-07T15:00:36.041Z,7.20
2019-02-07T15:03:02.858Z,7.30
2019-02-07T15:05:31.414Z,7.40
2019-02-07T15:07:57.936Z,7.40
2019-02-07T15:10:24.573Z,7.60
2019-02-07T15:12:51.174Z,7.60
2019-02-07T15:15:20.006Z,7.80
2019-02-07T15:17:46.622Z,7.90
2019-02-07T15:20:14.233Z,8.20
2019-02-07T15:22:40.802Z,8.20
2019-02-07T15:25:10.334Z,8.20
2019-02-07T15:27:36.860Z,8.20
2019-02-07T15:30:09.962Z,8.10
2019-02-07T15:32:36.585Z,8.00
2019-02-07T15:35:07.017Z,8.00
2019-02-07T15:37:33.602Z,7.60
2019-02-07T15:40:00.316Z,7.40
2019-02-07T15:42:26.937Z,7.40
2019-02-07T15:44:53.458Z,7.10
2019-02-07T15:47:20.030Z,7.10
2019-02-07T15:49:46.591Z,7.00
2019-02-07T15:52:13.481Z,7.00
2019-02-07T15:54:39.895Z,6.90
2019-02-07T15:57:06.409Z,6.80
2019-02-07T15:59:34.986Z,6.60
2019-02-07T16:02:03.810Z,6.60
2019-02-07T16:04:30.600Z,6.60
2019-02-07T16:06:57.105Z,6.60
2019-02-07T16:09:24.154Z,6.40
2019-02-07T16:11:51.912Z,6.30
2019-02-07T16:14:18.533Z,6.30
2019-02-07T16:16:45.082Z,6.10
2019-02-07T16:19:11.805Z,6.20
2019-02-07T16:21:38.529Z,6.20
2019-02-07T16:24:05.536Z,6.00
2019-02-07T16:26:34.043Z,5.90
2019-02-07T16:29:00.630Z,5.80
2019-02-07T16:31:27.277Z,5.80
2019-02-07T16:33:53.906Z,5.90
2019-02-07T16:36:20.554Z,5.90
2019-02-07T16:38:47.488Z,5.80
2019-02-07T16:41:14.050Z,5.70
2019-02-07T16:43:40.659Z,5.80
2019-02-07T16:46:08.221Z,5.70
2019-02-07T16:48:34.845Z,5.80
2019-02-07T16:51:02.523Z,5.80
2019-02-07T16:53:29.261Z,5.80
2019-02-07T16:55:56.013Z,5.60
2019-02-07T16:58:22.662Z,5.60
2019-02-07T17:00:50.442Z,5.60
2019-02-07T17:03:17.098Z,5.60
2019-02-07T17:05:44.001Z,5.50
2019-02-07T17:08:10.965Z,5.50
2019-02-07T17:10:39.103Z,5.50
2019-02-07T17:13:08.534Z,5.50
2019-02-07T17:15:35.633Z,5.50
2019-02-07T17:18:02.836Z,5.50
2019-02-07T17:20:30.492Z,5.50
2019-02-07T17:22:57.558Z,5.60
2019-02-07T17:25:25.656Z,5.60
2019-02-07T17:27:52.440Z,5.40
2019-02-07T17:30:20.538Z,5.40
2019-02-07T17:32:47.467Z,5.30
2019-02-07T17:35:15.107Z,5.40
2019-02-07T17:37:41.615Z,5.40
2019-02-07T17:40:11.249Z,5.40
2019-02-07T17:42:37.990Z,5.50
2019-02-07T17:45:08.438Z,5.50
2019-02-07T17:47:35.290Z,5.50
2019-02-07T17:50:08.608Z,5.50
2019-02-07T17:52:35.168Z,5.50
2019-02-07T17:55:02.884Z,5.50
2019-02-07T17:57:29.498Z,5.50
2019-02-07T17:59:56.111Z,5.60
2019-02-07T18:02:22.842Z,5.60
2019-02-07T18:04:49.709Z,5.50
2019-02-07T18:07:16.761Z,5.60
2019-02-07T18:09:43.766Z,5.60
2019-02-07T18:12:10.728Z,5.50
2019-02-07T18:14:37.596Z,5.40
2019-02-07T18:17:04.977Z,5.40
2019-02-07T18:19:31.581Z,5.50
2019-02-07T18:21:58.449Z,5.40
2019-02-07T18:24:25.265Z,5.40
2019-02-07T18:26:52.292Z,5.30
2019-02-07T18:29:19.291Z,5.40
2019-02-07T18:31:45.881Z,5.40
2019-02-07T18:34:12.787Z,5.20
2019-02-07T18:36:39.952Z,5.30
2019-02-07T18:39:07.320Z,5.30
2019-02-07T18:41:34.157Z,5.30
2019-02-07T18:44:00.721Z,5.20
2019-02-07T18:46:27.872Z,5.30
2019-02-07T18:48:54.434Z,5.30
2019-02-07T18:51:21.873Z,5.20
2019-02-07T18:53:48.748Z,5.20
2019-02-07T18:56:15.858Z,5.10
2019-02-07T18:58:43.314Z,5.10
2019-02-07T19:01:10.122Z,5.10
2019-02-07T19:03:37.051Z,5.00
2019-02-07T19:06:04.574Z,5.00
2019-02-07T19:08:32.039Z,5.10
2019-02-07T19:10:58.779Z,5.00
2019-02-07T19:13:25.584Z,4.90
2019-02-07T19:15:55.724Z,5.00
2019-02-07T19:18:23.789Z,5.00
2019-02-07T19:20:51.150Z,5.00
2019-02-07T19:23:19.009Z,4.80
2019-02-07T19:25:46.188Z,4.90
2019-02-07T19:28:13.192Z,4.90
2019-02-07T19:30:40.822Z,5.00
2019-02-07T19:33:08.104Z,4.90
2019-02-07T19:35:35.870Z,4.90
2019-02-07T19:38:04.184Z,5.00
2019-02-07T19:40:32.170Z,5.00
2019-02-07T19:43:00.106Z,5.00
2019-02-07T19:45:28.083Z,5.10
2019-02-07T19:47:55.719Z,5.00
2019-02-07T19:50:26.451Z,5.00
2019-02-07T19:52:53.816Z,5.00
2019-02-07T19:55:24.096Z,5.10
2019-02-07T19:57:52.507Z,5.00
2019-02-07T20:00:22.799Z,5.00
2019-02-07T20:02:50.790Z,5.10
2019-02-07T20:05:18.305Z,5.10
2019-02-07T20:07:45.916Z,5.10
2019-02-07T20:10:27.167Z,5.10
2019-02-07T20:12:54.830Z,5.10
2019-02-07T20:15:24.402Z,5.20
2019-02-07T20:17:52.903Z,5.20
2019-02-07T20:20:20.397Z,5.20
2019-02-07T20:22:47.912Z,5.10
2019-02-07T20:25:17.379Z,5.10
2019-02-07T20:27:44.781Z,5.30
2019-02-07T20:30:15.414Z,5.20
2019-02-07T20:32:43.027Z,5.10
2019-02-07T20:35:10.696Z,5.30
2019-02-07T20:37:38.115Z,5.30
2019-02-07T20:40:08.520Z,5.20
2019-02-07T20:42:36.848Z,5.20
2019-02-07T20:45:07.442Z,5.20
2019-02-07T20:47:35.024Z,5.20
2019-02-07T20:50:05.104Z,5.10
2019-02-07T20:52:32.725Z,5.10
2019-02-07T20:55:00.233Z,5.20
2019-02-07T20:57:27.717Z,5.10
2019-02-07T20:59:55.165Z,5.20
2019-02-07T21:02:22.628Z,5.20
2019-02-07T21:04:50.043Z,5.20
2019-02-07T21:07:17.350Z,5.20
2019-02-07T21:09:44.606Z,5.20
2019-02-07T21:12:11.807Z,5.20
2019-02-07T21:14:38.906Z,5.20
2019-02-07T21:17:06.302Z,5.20
2019-02-07T21:19:33.116Z,5.20
2019-02-07T21:22:00.017Z,5.20
2019-02-07T21:24:26.507Z,5.10
2019-02-07T21:26:53.037Z,5.10
2019-02-07T21:29:19.893Z,5.10
2019-02-07T21:31:46.506Z,5.20
2019-02-07T21:34:13.071Z,5.10
2019-02-07T21:36:39.625Z,5.10
2019-02-07T21:39:08.953Z,5.20
2019-02-07T21:41:35.717Z,5.20
2019-02-07T21:44:03.064Z,5.20
2019-02-07T21:46:29.804Z,5.20
2019-02-07T21:48:56.748Z,5.20
2019-02-07T21:51:23.403Z,5.20
2019-02-07T21:53:50.032Z,5.30
2019-02-07T21:56:16.497Z,5.30
2019-02-07T21:58:43.093Z,5.30
2019-02-07T22:01:09.689Z,5.40
2019-02-07T22:03:36.267Z,5.40
2019-02-07T22:06:03.032Z,5.40
2019-02-07T22:08:29.600Z,5.40
2019-02-07T22:10:56.205Z,5.40
2019-02-07T22:13:22.756Z,5.40
2019-02-07T22:15:49.455Z,5.40
2019-02-07T22:18:16.062Z,5.40
2019-02-07T22:20:42.636Z,5.40
2019-02-07T22:23:09.394Z,5.40
2019-02-07T22:25:36.014Z,5.50
2019-02-07T22:28:03.419Z,5.50
2019-02-07T22:30:34.741Z,5.50
2019-02-07T22:33:01.563Z,5.50
2019-02-07T22:35:29.785Z,5.60
2019-02-07T22:37:56.473Z,5.40
2019-02-07T22:40:24.131Z,5.50
2019-02-07T22:42:50.942Z,5.60
2019-02-07T22:45:20.449Z,5.60
2019-02-07T22:47:47.009Z,5.70
2019-02-07T22:50:19.610Z,5.70
2019-02-07T22:52:46.337Z,5.80
2019-02-07T22:55:13.319Z,5.70
2019-02-07T22:57:39.883Z,5.70
2019-02-07T23:00:30.673Z,5.70
2019-02-07T23:02:57.691Z,5.70
2019-02-07T23:05:25.992Z,5.70
2019-02-07T23:07:52.937Z,5.80
2019-02-07T23:10:19.840Z,5.70
2019-02-07T23:12:46.564Z,5.70
2019-02-07T23:15:13.521Z,5.80
2019-02-07T23:17:40.807Z,5.80
2019-02-07T23:20:09.276Z,5.80
2019-02-07T23:22:35.989Z,5.80
2019-02-07T23:25:04.414Z,5.80
2019-02-07T23:27:31.622Z,5.70
2019-02-07T23:29:58.353Z,5.70
2019-02-07T23:32:24.851Z,5.70
2019-02-07T23:34:51.746Z,5.60
2019-02-07T23:37:18.478Z,5.60
2019-02-07T23:39:45.125Z,5.70
2019-02-07T23:42:11.786Z,5.70
2019-02-07T23:44:38.383Z,5.80
2019-02-07T23:47:05.138Z,5.70
2019-02-07T23:49:31.691Z,5.80
2019-02-07T23:51:58.398Z,5.80
2019-02-07T23:54:25.163Z,5.70
2019-02-07T23:56:52.392Z,5.80
2019-02-07T23:59:19.110Z,5.80
